Jacksonville Naval Air Station
KNIP : now visible

Airfield :











YOU CAN JOIN US ON...

 
LOGIN :

Register | Disclaimer

   EN    FR    IT 

 









Legend :    VFR   Marginal VFR   IFR   Intensive IFR   Very Intensive IFR
Visi :
Ceiling :
>= 8 km
>= 3000ft
5 to 8 km
1000 to 3000 ft
1500m to 5 km
500 to 1000 ft
800 to 1500m
200 to 500 ft
< 800m
< 200 ft
Symbols :   Thunderstorms  Fog  Heavy snow  Heavy precipitations  Wind > 20 kt






- Airport Elevation : 21 ft


KNIP - Jacksonville Naval Air Station

CURRENT METAR :
  • 261757Z 04016G22KT 4SM RA SCT008 BKN019 BKN050 24/21 A2992 RMK AO2 T2 SET P0000 T02390211

EXPIRED METARs :
  • 261721Z 04014G19KT 1SM +RA BR BKN008 OVC015 24/22 A2992 RMK AO2 T2 SET P0035 T02390217
  • 261655Z 03012KT 1SM +RA BR SCT006 BKN020 OVC040 24/22 A2993 RMK AO2 T2 SET P0004 T02390217
  • 261553Z 08012G17KT 2SM RA SCT008 BKN020 OVC048 24/22 A2994 RMK AO2 SLP132 T2 SET P0011 T02440217

TAF TAF KNIP
Valid from the 26 at 15:00 until the 27 at 15:00 UTC


2615/2715 07012KT 9999 VCTS SCT014CB BKN040 OVC090 QNH2989INS
TEMPO 2615/2618 4000 SHRA BKN012CB OVC045
FM261800 05017G24KT 8000 -SHRA VCTS BKN015CB OVC050 QNH2985INS
TEMPO 2618/2622 VRB25G35KT 2400 TSRA BR SCT006 OVC012CB
FM270000 04012KT 9999 VCSH SCT015 BKN030 OVC100 QNH2986INS
FM270400 36007KT 9999 VCSH BKN015 OVC030 QNH2986INS T28/2619Z T21/2711Z FN20016
KZJX FIR / North America



MET'MAP, your aeronautical weather chart ! - Copyright ORBIFLY December 2007 - Disclaimer

ORBIFLY MET'MAP TEAM :

Programming & Development : Alexandra Zaïnal
Concept & original design : Baudouin d'Aumeries
Assistance for programming : Marc-Olivier Méhu
Technical & hardware support : Manuel Goepfert

Contact : metmap@orbifly.com




SOURCES & CREDITS :

   NOAA       Earth
Advisory